sensor_id;sensor_type;location;lat;lon;timestamp;temperature;humidity
31263;DHT22;17892;52.080;9.006;2023-04-22T00:01:41;14.00;71.90
31263;DHT22;17892;52.080;9.006;2023-04-22T00:04:07;14.00;71.70
31263;DHT22;17892;52.080;9.006;2023-04-22T00:06:33;14.00;71.60
31263;DHT22;17892;52.080;9.006;2023-04-22T00:08:59;13.90;71.40
31263;DHT22;17892;52.080;9.006;2023-04-22T00:11:25;13.90;71.50
31263;DHT22;17892;52.080;9.006;2023-04-22T00:13:51;13.90;71.60
31263;DHT22;17892;52.080;9.006;2023-04-22T00:16:17;13.90;72.30
31263;DHT22;17892;52.080;9.006;2023-04-22T00:18:43;13.90;72.10
31263;DHT22;17892;52.080;9.006;2023-04-22T00:21:08;13.90;72.20
31263;DHT22;17892;52.080;9.006;2023-04-22T00:23:34;13.80;72.10
31263;DHT22;17892;52.080;9.006;2023-04-22T00:26:00;13.80;71.90
31263;DHT22;17892;52.080;9.006;2023-04-22T00:28:26;13.80;71.90
31263;DHT22;17892;52.080;9.006;2023-04-22T00:30:52;13.70;72.50
31263;DHT22;17892;52.080;9.006;2023-04-22T00:33:18;13.70;72.50
31263;DHT22;17892;52.080;9.006;2023-04-22T00:35:45;13.70;72.60
31263;DHT22;17892;52.080;9.006;2023-04-22T00:38:11;13.70;73.50
31263;DHT22;17892;52.080;9.006;2023-04-22T00:40:36;13.60;73.60
31263;DHT22;17892;52.080;9.006;2023-04-22T00:43:02;13.70;73.60
31263;DHT22;17892;52.080;9.006;2023-04-22T00:45:29;13.70;73.70
31263;DHT22;17892;52.080;9.006;2023-04-22T00:47:55;13.80;74.20
31263;DHT22;17892;52.080;9.006;2023-04-22T00:50:22;13.80;73.70
31263;DHT22;17892;52.080;9.006;2023-04-22T00:52:47;13.80;73.80
31263;DHT22;17892;52.080;9.006;2023-04-22T00:55:13;13.80;73.80
31263;DHT22;17892;52.080;9.006;2023-04-22T00:57:39;13.90;73.90
31263;DHT22;17892;52.080;9.006;2023-04-22T01:00:06;13.90;73.80
31263;DHT22;17892;52.080;9.006;2023-04-22T01:02:35;13.90;74.20
31263;DHT22;17892;52.080;9.006;2023-04-22T01:05:02;13.90;74.50
31263;DHT22;17892;52.080;9.006;2023-04-22T01:07:29;13.90;74.30
31263;DHT22;17892;52.080;9.006;2023-04-22T01:09:55;14.00;75.20
31263;DHT22;17892;52.080;9.006;2023-04-22T01:12:21;14.00;74.90
31263;DHT22;17892;52.080;9.006;2023-04-22T01:14:47;14.00;75.00
31263;DHT22;17892;52.080;9.006;2023-04-22T01:17:14;14.00;74.80
31263;DHT22;17892;52.080;9.006;2023-04-22T01:19:40;14.00;74.80
31263;DHT22;17892;52.080;9.006;2023-04-22T01:22:07;14.00;74.40
31263;DHT22;17892;52.080;9.006;2023-04-22T01:24:35;14.10;74.50
31263;DHT22;17892;52.080;9.006;2023-04-22T01:27:01;14.00;74.40
31263;DHT22;17892;52.080;9.006;2023-04-22T01:29:27;14.00;74.70
31263;DHT22;17892;52.080;9.006;2023-04-22T01:31:53;14.00;74.80
31263;DHT22;17892;52.080;9.006;2023-04-22T01:34:20;14.00;74.90
31263;DHT22;17892;52.080;9.006;2023-04-22T01:36:47;14.00;74.70
31263;DHT22;17892;52.080;9.006;2023-04-22T01:39:13;13.90;75.00
31263;DHT22;17892;52.080;9.006;2023-04-22T01:41:38;13.90;75.70
31263;DHT22;17892;52.080;9.006;2023-04-22T01:44:05;13.90;76.20
31263;DHT22;17892;52.080;9.006;2023-04-22T01:46:32;14.00;75.90
31263;DHT22;17892;52.080;9.006;2023-04-22T01:48:58;14.00;75.70
31263;DHT22;17892;52.080;9.006;2023-04-22T01:51:23;14.00;76.10
31263;DHT22;17892;52.080;9.006;2023-04-22T01:53:49;14.00;76.10
31263;DHT22;17892;52.080;9.006;2023-04-22T01:56:15;13.90;76.10
31263;DHT22;17892;52.080;9.006;2023-04-22T01:58:42;14.00;76.20
31263;DHT22;17892;52.080;9.006;2023-04-22T02:01:09;14.00;76.20
31263;DHT22;17892;52.080;9.006;2023-04-22T02:03:35;14.00;76.60
31263;DHT22;17892;52.080;9.006;2023-04-22T02:06:01;14.00;76.30
31263;DHT22;17892;52.080;9.006;2023-04-22T02:08:27;14.00;76.70
31263;DHT22;17892;52.080;9.006;2023-04-22T02:10:53;13.90;76.70
31263;DHT22;17892;52.080;9.006;2023-04-22T02:13:19;13.90;76.60
31263;DHT22;17892;52.080;9.006;2023-04-22T02:15:44;13.90;76.30
31263;DHT22;17892;52.080;9.006;2023-04-22T02:18:10;13.90;76.30
31263;DHT22;17892;52.080;9.006;2023-04-22T02:20:36;13.90;76.30
31263;DHT22;17892;52.080;9.006;2023-04-22T02:23:03;13.90;76.40
31263;DHT22;17892;52.080;9.006;2023-04-22T02:25:29;13.80;77.00
31263;DHT22;17892;52.080;9.006;2023-04-22T02:27:56;13.80;77.10
31263;DHT22;17892;52.080;9.006;2023-04-22T02:30:22;13.80;77.50
31263;DHT22;17892;52.080;9.006;2023-04-22T02:32:48;13.80;77.70
31263;DHT22;17892;52.080;9.006;2023-04-22T02:35:14;13.70;77.50
31263;DHT22;17892;52.080;9.006;2023-04-22T02:37:40;13.70;77.40
31263;DHT22;17892;52.080;9.006;2023-04-22T02:40:06;13.60;78.00
31263;DHT22;17892;52.080;9.006;2023-04-22T02:42:34;13.60;77.70
31263;DHT22;17892;52.080;9.006;2023-04-22T02:44:59;13.60;77.80
31263;DHT22;17892;52.080;9.006;2023-04-22T02:47:25;13.60;77.50
31263;DHT22;17892;52.080;9.006;2023-04-22T02:49:51;13.60;78.20
31263;DHT22;17892;52.080;9.006;2023-04-22T02:52:16;13.60;77.80
31263;DHT22;17892;52.080;9.006;2023-04-22T02:54:42;13.60;77.90
31263;DHT22;17892;52.080;9.006;2023-04-22T02:57:08;13.60;77.70
31263;DHT22;17892;52.080;9.006;2023-04-22T02:59:34;13.60;78.00
31263;DHT22;17892;52.080;9.006;2023-04-22T03:02:01;13.50;77.70
31263;DHT22;17892;52.080;9.006;2023-04-22T03:04:27;13.50;77.90
31263;DHT22;17892;52.080;9.006;2023-04-22T03:06:53;13.50;79.90
31263;DHT22;17892;52.080;9.006;2023-04-22T03:09:18;13.50;79.70
31263;DHT22;17892;52.080;9.006;2023-04-22T03:11:44;13.50;80.90
31263;DHT22;17892;52.080;9.006;2023-04-22T03:14:10;13.40;80.70
31263;DHT22;17892;52.080;9.006;2023-04-22T03:16:36;13.40;80.70
31263;DHT22;17892;52.080;9.006;2023-04-22T03:19:02;13.40;80.30
31263;DHT22;17892;52.080;9.006;2023-04-22T03:21:27;13.30;80.30
31263;DHT22;17892;52.080;9.006;2023-04-22T03:23:53;13.30;81.30
31263;DHT22;17892;52.080;9.006;2023-04-22T03:26:19;13.30;81.30
31263;DHT22;17892;52.080;9.006;2023-04-22T03:28:46;13.30;82.00
31263;DHT22;17892;52.080;9.006;2023-04-22T03:31:11;13.30;82.10
31263;DHT22;17892;52.080;9.006;2023-04-22T03:33:37;13.30;82.30
31263;DHT22;17892;52.080;9.006;2023-04-22T03:36:03;13.30;82.70
31263;DHT22;17892;52.080;9.006;2023-04-22T03:38:29;13.30;82.70
31263;DHT22;17892;52.080;9.006;2023-04-22T03:40:55;13.40;83.20
31263;DHT22;17892;52.080;9.006;2023-04-22T03:43:20;13.40;83.30
31263;DHT22;17892;52.080;9.006;2023-04-22T03:45:46;13.40;84.00
31263;DHT22;17892;52.080;9.006;2023-04-22T03:48:12;13.40;83.70
31263;DHT22;17892;52.080;9.006;2023-04-22T03:50:37;13.40;83.60
31263;DHT22;17892;52.080;9.006;2023-04-22T03:53:03;13.40;83.70
31263;DHT22;17892;52.080;9.006;2023-04-22T03:55:29;13.40;83.50
31263;DHT22;17892;52.080;9.006;2023-04-22T03:57:54;13.50;84.70
31263;DHT22;17892;52.080;9.006;2023-04-22T04:00:20;13.50;83.60
31263;DHT22;17892;52.080;9.006;2023-04-22T04:02:46;13.40;84.10
31263;DHT22;17892;52.080;9.006;2023-04-22T04:05:12;13.40;84.30
31263;DHT22;17892;52.080;9.006;2023-04-22T04:07:38;13.50;84.80
31263;DHT22;17892;52.080;9.006;2023-04-22T04:10:04;13.50;85.30
31263;DHT22;17892;52.080;9.006;2023-04-22T04:12:30;13.50;85.40
31263;DHT22;17892;52.080;9.006;2023-04-22T04:14:56;13.50;84.90
31263;DHT22;17892;52.080;9.006;2023-04-22T04:17:21;13.50;85.00
31263;DHT22;17892;52.080;9.006;2023-04-22T04:19:51;13.50;85.00
31263;DHT22;17892;52.080;9.006;2023-04-22T04:22:17;13.60;86.00
31263;DHT22;17892;52.080;9.006;2023-04-22T04:24:43;13.60;85.30
31263;DHT22;17892;52.080;9.006;2023-04-22T04:27:09;13.60;85.40
31263;DHT22;17892;52.080;9.006;2023-04-22T04:29:36;13.60;85.80
31263;DHT22;17892;52.080;9.006;2023-04-22T04:32:02;13.60;85.90
31263;DHT22;17892;52.080;9.006;2023-04-22T04:34:29;13.60;86.50
31263;DHT22;17892;52.080;9.006;2023-04-22T04:36:56;13.60;87.00
31263;DHT22;17892;52.080;9.006;2023-04-22T04:39:22;13.60;86.30
31263;DHT22;17892;52.080;9.006;2023-04-22T04:41:48;13.60;86.50
31263;DHT22;17892;52.080;9.006;2023-04-22T04:44:14;13.60;86.50
31263;DHT22;17892;52.080;9.006;2023-04-22T04:46:40;13.60;87.40
31263;DHT22;17892;52.080;9.006;2023-04-22T04:49:06;13.60;88.40
31263;DHT22;17892;52.080;9.006;2023-04-22T04:51:34;13.70;88.40
31263;DHT22;17892;52.080;9.006;2023-04-22T04:53:59;13.80;88.50
31263;DHT22;17892;52.080;9.006;2023-04-22T04:56:25;13.80;88.30
31263;DHT22;17892;52.080;9.006;2023-04-22T04:58:51;13.90;88.20
31263;DHT22;17892;52.080;9.006;2023-04-22T05:01:17;14.00;88.30
31263;DHT22;17892;52.080;9.006;2023-04-22T05:03:42;14.10;88.50
31263;DHT22;17892;52.080;9.006;2023-04-22T05:06:08;14.10;88.50
31263;DHT22;17892;52.080;9.006;2023-04-22T05:08:34;14.20;88.30
31263;DHT22;17892;52.080;9.006;2023-04-22T05:11:00;14.30;88.30
31263;DHT22;17892;52.080;9.006;2023-04-22T05:13:26;14.40;88.50
31263;DHT22;17892;52.080;9.006;2023-04-22T05:15:52;14.40;88.50
31263;DHT22;17892;52.080;9.006;2023-04-22T05:18:17;14.50;88.50
31263;DHT22;17892;52.080;9.006;2023-04-22T05:20:43;14.60;88.60
31263;DHT22;17892;52.080;9.006;2023-04-22T05:23:09;14.60;88.50
31263;DHT22;17892;52.080;9.006;2023-04-22T05:25:34;14.80;88.50
31263;DHT22;17892;52.080;9.006;2023-04-22T05:28:00;14.90;88.50
31263;DHT22;17892;52.080;9.006;2023-04-22T05:30:26;14.90;88.20
31263;DHT22;17892;52.080;9.006;2023-04-22T05:32:51;15.00;88.10
31263;DHT22;17892;52.080;9.006;2023-04-22T05:35:17;15.10;88.10
31263;DHT22;17892;52.080;9.006;2023-04-22T05:37:43;15.20;87.90
31263;DHT22;17892;52.080;9.006;2023-04-22T05:40:09;15.20;87.60
31263;DHT22;17892;52.080;9.006;2023-04-22T05:42:34;15.30;87.40
31263;DHT22;17892;52.080;9.006;2023-04-22T05:45:00;15.40;87.40
31263;DHT22;17892;52.080;9.006;2023-04-22T05:47:26;15.50;87.40
31263;DHT22;17892;52.080;9.006;2023-04-22T05:49:52;15.50;87.30
31263;DHT22;17892;52.080;9.006;2023-04-22T05:52:18;15.60;87.30
31263;DHT22;17892;52.080;9.006;2023-04-22T05:54:43;15.70;87.50
31263;DHT22;17892;52.080;9.006;2023-04-22T05:57:09;15.80;87.40
31263;DHT22;17892;52.080;9.006;2023-04-22T05:59:35;15.90;87.50
31263;DHT22;17892;52.080;9.006;2023-04-22T06:02:01;15.90;87.40
31263;DHT22;17892;52.080;9.006;2023-04-22T06:04:26;16.00;87.30
31263;DHT22;17892;52.080;9.006;2023-04-22T06:06:52;16.10;87.30
31263;DHT22;17892;52.080;9.006;2023-04-22T06:09:19;16.20;87.10
31263;DHT22;17892;52.080;9.006;2023-04-22T06:11:45;16.30;87.00
31263;DHT22;17892;52.080;9.006;2023-04-22T06:14:11;16.40;87.00
31263;DHT22;17892;52.080;9.006;2023-04-22T06:16:37;16.50;86.70
31263;DHT22;17892;52.080;9.006;2023-04-22T06:19:04;16.60;87.00
31263;DHT22;17892;52.080;9.006;2023-04-22T06:21:30;16.80;87.40
31263;DHT22;17892;52.080;9.006;2023-04-22T06:24:00;16.90;87.40
31263;DHT22;17892;52.080;9.006;2023-04-22T06:26:26;17.10;87.30
31263;DHT22;17892;52.080;9.006;2023-04-22T06:28:52;17.20;87.20
31263;DHT22;17892;52.080;9.006;2023-04-22T06:31:18;17.40;86.90
31263;DHT22;17892;52.080;9.006;2023-04-22T06:33:45;17.50;87.00
31263;DHT22;17892;52.080;9.006;2023-04-22T06:36:12;17.70;86.80
31263;DHT22;17892;52.080;9.006;2023-04-22T06:38:38;17.90;87.10
31263;DHT22;17892;52.080;9.006;2023-04-22T06:41:04;18.10;87.20
31263;DHT22;17892;52.080;9.006;2023-04-22T06:43:29;18.30;86.80
31263;DHT22;17892;52.080;9.006;2023-04-22T06:45:55;18.50;86.20
31263;DHT22;17892;52.080;9.006;2023-04-22T06:48:21;18.80;86.00
31263;DHT22;17892;52.080;9.006;2023-04-22T06:50:47;19.00;86.00
31263;DHT22;17892;52.080;9.006;2023-04-22T06:53:12;19.20;84.80
31263;DHT22;17892;52.080;9.006;2023-04-22T06:55:38;19.40;84.40
31263;DHT22;17892;52.080;9.006;2023-04-22T06:58:04;19.60;83.00
31263;DHT22;17892;52.080;9.006;2023-04-22T07:00:30;19.70;83.20
31263;DHT22;17892;52.080;9.006;2023-04-22T07:02:56;19.90;82.20
31263;DHT22;17892;52.080;9.006;2023-04-22T07:05:23;20.00;81.90
31263;DHT22;17892;52.080;9.006;2023-04-22T07:07:48;20.10;81.90
31263;DHT22;17892;52.080;9.006;2023-04-22T07:10:14;20.30;81.80
31263;DHT22;17892;52.080;9.006;2023-04-22T07:12:40;20.30;80.70
31263;DHT22;17892;52.080;9.006;2023-04-22T07:15:06;20.40;80.20
31263;DHT22;17892;52.080;9.006;2023-04-22T07:17:32;20.50;79.70
31263;DHT22;17892;52.080;9.006;2023-04-22T07:19:58;20.50;79.00
31263;DHT22;17892;52.080;9.006;2023-04-22T07:22:24;20.50;79.10
31263;DHT22;17892;52.080;9.006;2023-04-22T07:24:50;20.60;77.70
31263;DHT22;17892;52.080;9.006;2023-04-22T07:27:15;20.50;77.10
31263;DHT22;17892;52.080;9.006;2023-04-22T07:29:41;20.50;77.50
31263;DHT22;17892;52.080;9.006;2023-04-22T07:32:07;20.50;77.80
31263;DHT22;17892;52.080;9.006;2023-04-22T07:34:33;20.50;77.10
31263;DHT22;17892;52.080;9.006;2023-04-22T07:36:59;20.40;75.90
31263;DHT22;17892;52.080;9.006;2023-04-22T07:39:25;20.30;75.70
31263;DHT22;17892;52.080;9.006;2023-04-22T07:41:51;20.30;75.30
31263;DHT22;17892;52.080;9.006;2023-04-22T07:44:17;20.20;74.90
31263;DHT22;17892;52.080;9.006;2023-04-22T07:46:46;20.10;74.20
31263;DHT22;17892;52.080;9.006;2023-04-22T07:49:13;20.00;74.70
31263;DHT22;17892;52.080;9.006;2023-04-22T07:51:39;20.00;76.10
31263;DHT22;17892;52.080;9.006;2023-04-22T07:54:05;20.10;77.50
31263;DHT22;17892;52.080;9.006;2023-04-22T07:56:32;20.30;77.40
31263;DHT22;17892;52.080;9.006;2023-04-22T07:58:58;20.50;77.90
31263;DHT22;17892;52.080;9.006;2023-04-22T08:01:24;20.80;79.00
31263;DHT22;17892;52.080;9.006;2023-04-22T08:03:50;21.20;79.80
31263;DHT22;17892;52.080;9.006;2023-04-22T08:06:15;21.60;79.90
31263;DHT22;17892;52.080;9.006;2023-04-22T08:08:41;22.10;80.20
31263;DHT22;17892;52.080;9.006;2023-04-22T08:11:07;22.50;77.50
31263;DHT22;17892;52.080;9.006;2023-04-22T08:13:33;23.00;74.70
31263;DHT22;17892;52.080;9.006;2023-04-22T08:16:01;23.30;70.30
31263;DHT22;17892;52.080;9.006;2023-04-22T08:18:28;23.50;68.60
31263;DHT22;17892;52.080;9.006;2023-04-22T08:20:54;23.70;68.40
31263;DHT22;17892;52.080;9.006;2023-04-22T08:23:20;23.90;70.70
31263;DHT22;17892;52.080;9.006;2023-04-22T08:25:47;24.10;69.30
31263;DHT22;17892;52.080;9.006;2023-04-22T08:28:13;24.10;66.40
31263;DHT22;17892;52.080;9.006;2023-04-22T08:30:39;24.30;68.30
31263;DHT22;17892;52.080;9.006;2023-04-22T08:33:04;24.50;68.30
31263;DHT22;17892;52.080;9.006;2023-04-22T08:35:30;24.60;65.60
31263;DHT22;17892;52.080;9.006;2023-04-22T08:37:56;24.70;65.70
31263;DHT22;17892;52.080;9.006;2023-04-22T08:40:21;24.70;64.10
31263;DHT22;17892;52.080;9.006;2023-04-22T08:42:47;24.80;64.70
31263;DHT22;17892;52.080;9.006;2023-04-22T08:45:14;24.90;64.40
31263;DHT22;17892;52.080;9.006;2023-04-22T08:47:41;24.80;61.90
31263;DHT22;17892;52.080;9.006;2023-04-22T08:50:08;24.90;62.00
31263;DHT22;17892;52.080;9.006;2023-04-22T08:52:34;25.00;62.70
31263;DHT22;17892;52.080;9.006;2023-04-22T08:55:00;25.10;62.50
31263;DHT22;17892;52.080;9.006;2023-04-22T08:57:26;25.20;63.20
31263;DHT22;17892;52.080;9.006;2023-04-22T08:59:54;25.20;62.10
31263;DHT22;17892;52.080;9.006;2023-04-22T09:02:22;25.40;62.50
31263;DHT22;17892;52.080;9.006;2023-04-22T09:04:50;25.50;62.40
31263;DHT22;17892;52.080;9.006;2023-04-22T09:07:22;25.70;63.50
31263;DHT22;17892;52.080;9.006;2023-04-22T09:09:49;25.90;59.30
31263;DHT22;17892;52.080;9.006;2023-04-22T09:12:15;26.10;61.00
31263;DHT22;17892;52.080;9.006;2023-04-22T09:14:44;26.20;61.90
31263;DHT22;17892;52.080;9.006;2023-04-22T09:17:10;26.50;59.60
31263;DHT22;17892;52.080;9.006;2023-04-22T09:19:37;26.70;60.50
31263;DHT22;17892;52.080;9.006;2023-04-22T09:22:03;26.90;61.00
31263;DHT22;17892;52.080;9.006;2023-04-22T09:24:29;27.20;60.90
31263;DHT22;17892;52.080;9.006;2023-04-22T09:26:55;27.40;61.50
31263;DHT22;17892;52.080;9.006;2023-04-22T09:29:21;27.70;59.30
31263;DHT22;17892;52.080;9.006;2023-04-22T09:31:54;27.80;57.70
31263;DHT22;17892;52.080;9.006;2023-04-22T09:34:21;27.90;58.70
31263;DHT22;17892;52.080;9.006;2023-04-22T09:36:49;28.10;58.10
31263;DHT22;17892;52.080;9.006;2023-04-22T09:39:15;28.30;58.80
31263;DHT22;17892;52.080;9.006;2023-04-22T09:41:41;28.40;57.10
31263;DHT22;17892;52.080;9.006;2023-04-22T09:44:10;28.60;58.00
31263;DHT22;17892;52.080;9.006;2023-04-22T09:46:41;28.70;56.70
31263;DHT22;17892;52.080;9.006;2023-04-22T09:49:07;29.00;55.30
31263;DHT22;17892;52.080;9.006;2023-04-22T09:51:33;29.10;55.50
31263;DHT22;17892;52.080;9.006;2023-04-22T09:54:01;29.20;54.00
31263;DHT22;17892;52.080;9.006;2023-04-22T09:56:48;29.20;53.10
31263;DHT22;17892;52.080;9.006;2023-04-22T09:59:26;29.30;52.20
31263;DHT22;17892;52.080;9.006;2023-04-22T10:02:00;29.10;50.30
31263;DHT22;17892;52.080;9.006;2023-04-22T10:04:28;29.10;51.10
31263;DHT22;17892;52.080;9.006;2023-04-22T10:06:55;29.00;52.00
31263;DHT22;17892;52.080;9.006;2023-04-22T10:09:22;29.00;52.50
31263;DHT22;17892;52.080;9.006;2023-04-22T10:11:51;29.00;52.40
31263;DHT22;17892;52.080;9.006;2023-04-22T10:14:21;29.00;52.30
31263;DHT22;17892;52.080;9.006;2023-04-22T10:16:48;29.10;52.40
31263;DHT22;17892;52.080;9.006;2023-04-22T10:19:23;29.10;50.30
31263;DHT22;17892;52.080;9.006;2023-04-22T10:21:55;29.00;50.30
31263;DHT22;17892;52.080;9.006;2023-04-22T10:24:25;29.00;50.90
31263;DHT22;17892;52.080;9.006;2023-04-22T10:26:56;28.90;52.10
31263;DHT22;17892;52.080;9.006;2023-04-22T10:29:24;29.00;51.20
31263;DHT22;17892;52.080;9.006;2023-04-22T10:31:55;29.00;51.10
31263;DHT22;17892;52.080;9.006;2023-04-22T10:34:29;28.90;50.20
31263;DHT22;17892;52.080;9.006;2023-04-22T10:37:09;28.90;50.80
31263;DHT22;17892;52.080;9.006;2023-04-22T10:39:36;28.90;50.20
31263;DHT22;17892;52.080;9.006;2023-04-22T10:44:59;28.60;49.90
31263;DHT22;17892;52.080;9.006;2023-04-22T10:52:34;28.10;49.90
31263;DHT22;17892;52.080;9.006;2023-04-22T10:55:01;28.00;50.50
31263;DHT22;17892;52.080;9.006;2023-04-22T10:57:33;28.00;51.30
31263;DHT22;17892;52.080;9.006;2023-04-22T11:00:37;28.10;51.90
31263;DHT22;17892;52.080;9.006;2023-04-22T11:03:06;28.10;51.70
31263;DHT22;17892;52.080;9.006;2023-04-22T11:05:33;28.10;52.20
31263;DHT22;17892;52.080;9.006;2023-04-22T11:08:17;28.20;52.20
31263;DHT22;17892;52.080;9.006;2023-04-22T11:10:47;28.20;50.80
31263;DHT22;17892;52.080;9.006;2023-04-22T11:13:18;28.20;51.70
31263;DHT22;17892;52.080;9.006;2023-04-22T11:15:52;28.20;52.00
31263;DHT22;17892;52.080;9.006;2023-04-22T11:18:21;28.20;51.70
31263;DHT22;17892;52.080;9.006;2023-04-22T11:20:49;28.30;52.90
31263;DHT22;17892;52.080;9.006;2023-04-22T11:23:21;28.30;51.10
31263;DHT22;17892;52.080;9.006;2023-04-22T11:25:54;28.30;48.70
31263;DHT22;17892;52.080;9.006;2023-04-22T11:28:23;28.10;49.70
31263;DHT22;17892;52.080;9.006;2023-04-22T11:30:49;27.90;49.60
31263;DHT22;17892;52.080;9.006;2023-04-22T11:33:15;27.70;49.50
31263;DHT22;17892;52.080;9.006;2023-04-22T11:35:42;27.50;49.30
31263;DHT22;17892;52.080;9.006;2023-04-22T11:38:08;27.30;49.80
31263;DHT22;17892;52.080;9.006;2023-04-22T11:40:40;27.20;50.60
31263;DHT22;17892;52.080;9.006;2023-04-22T11:43:07;27.10;50.30
31263;DHT22;17892;52.080;9.006;2023-04-22T11:45:35;27.20;51.10
31263;DHT22;17892;52.080;9.006;2023-04-22T11:48:04;27.20;51.40
31263;DHT22;17892;52.080;9.006;2023-04-22T11:50:32;27.30;51.60
31263;DHT22;17892;52.080;9.006;2023-04-22T11:58:13;27.90;51.60
31263;DHT22;17892;52.080;9.006;2023-04-22T12:00:48;28.10;50.10
31263;DHT22;17892;52.080;9.006;2023-04-22T12:03:15;28.30;49.80
31263;DHT22;17892;52.080;9.006;2023-04-22T12:08:23;28.30;49.50
31263;DHT22;17892;52.080;9.006;2023-04-22T12:10:53;28.30;47.40
31263;DHT22;17892;52.080;9.006;2023-04-22T12:16:04;28.30;49.80
31263;DHT22;17892;52.080;9.006;2023-04-22T12:18:36;28.50;50.00
31263;DHT22;17892;52.080;9.006;2023-04-22T12:23:47;28.80;49.70
31263;DHT22;17892;52.080;9.006;2023-04-22T12:26:15;28.90;46.90
31263;DHT22;17892;52.080;9.006;2023-04-22T12:28:42;29.00;48.20
31263;DHT22;17892;52.080;9.006;2023-04-22T12:31:09;28.90;46.80
31263;DHT22;17892;52.080;9.006;2023-04-22T12:33:36;28.80;47.50
31263;DHT22;17892;52.080;9.006;2023-04-22T12:36:03;28.70;47.60
31263;DHT22;17892;52.080;9.006;2023-04-22T12:38:29;28.60;48.40
31263;DHT22;17892;52.080;9.006;2023-04-22T12:40:56;28.50;47.80
31263;DHT22;17892;52.080;9.006;2023-04-22T12:43:23;28.60;48.00
31263;DHT22;17892;52.080;9.006;2023-04-22T12:45:49;28.60;48.20
31263;DHT22;17892;52.080;9.006;2023-04-22T12:48:15;28.70;47.10
31263;DHT22;17892;52.080;9.006;2023-04-22T12:50:41;28.50;46.70
31263;DHT22;17892;52.080;9.006;2023-04-22T12:53:07;28.50;47.50
31263;DHT22;17892;52.080;9.006;2023-04-22T12:55:33;28.50;47.30
31263;DHT22;17892;52.080;9.006;2023-04-22T12:57:59;28.50;47.30
31263;DHT22;17892;52.080;9.006;2023-04-22T13:00:25;28.50;48.10
31263;DHT22;17892;52.080;9.006;2023-04-22T13:02:51;28.50;48.00
31263;DHT22;17892;52.080;9.006;2023-04-22T13:05:17;28.70;47.80
31263;DHT22;17892;52.080;9.006;2023-04-22T13:07:44;28.70;47.60
31263;DHT22;17892;52.080;9.006;2023-04-22T13:10:14;28.70;47.20
31263;DHT22;17892;52.080;9.006;2023-04-22T13:12:41;28.70;48.00
31263;DHT22;17892;52.080;9.006;2023-04-22T13:15:08;28.60;46.60
31263;DHT22;17892;52.080;9.006;2023-04-22T13:17:36;28.50;47.00
31263;DHT22;17892;52.080;9.006;2023-04-22T13:20:03;28.40;47.90
31263;DHT22;17892;52.080;9.006;2023-04-22T13:22:30;28.30;46.30
31263;DHT22;17892;52.080;9.006;2023-04-22T13:24:57;28.10;46.70
31263;DHT22;17892;52.080;9.006;2023-04-22T13:27:23;27.80;46.60
31263;DHT22;17892;52.080;9.006;2023-04-22T13:29:48;27.60;46.80
31263;DHT22;17892;52.080;9.006;2023-04-22T13:32:14;27.30;46.80
31263;DHT22;17892;52.080;9.006;2023-04-22T13:34:40;26.90;47.20
31263;DHT22;17892;52.080;9.006;2023-04-22T13:37:05;26.60;47.90
31263;DHT22;17892;52.080;9.006;2023-04-22T13:39:31;26.50;48.70
31263;DHT22;17892;52.080;9.006;2023-04-22T13:41:58;26.40;49.70
31263;DHT22;17892;52.080;9.006;2023-04-22T13:44:24;26.50;50.50
31263;DHT22;17892;52.080;9.006;2023-04-22T13:46:50;26.70;51.30
31263;DHT22;17892;52.080;9.006;2023-04-22T13:49:16;27.00;50.60
31263;DHT22;17892;52.080;9.006;2023-04-22T13:51:42;27.30;50.90
31263;DHT22;17892;52.080;9.006;2023-04-22T13:54:07;27.60;49.40
31263;DHT22;17892;52.080;9.006;2023-04-22T13:56:33;27.90;49.60
31263;DHT22;17892;52.080;9.006;2023-04-22T13:58:59;28.20;47.80
31263;DHT22;17892;52.080;9.006;2023-04-22T14:01:25;28.10;46.70
31263;DHT22;17892;52.080;9.006;2023-04-22T14:03:52;28.00;46.50
31263;DHT22;17892;52.080;9.006;2023-04-22T14:06:19;27.80;46.20
31263;DHT22;17892;52.080;9.006;2023-04-22T14:08:45;27.60;47.00
31263;DHT22;17892;52.080;9.006;2023-04-22T14:11:11;27.30;47.60
31263;DHT22;17892;52.080;9.006;2023-04-22T14:13:38;27.20;47.80
31263;DHT22;17892;52.080;9.006;2023-04-22T14:16:04;27.10;48.70
31263;DHT22;17892;52.080;9.006;2023-04-22T14:18:35;27.10;49.10
31263;DHT22;17892;52.080;9.006;2023-04-22T14:21:04;27.10;49.10
31263;DHT22;17892;52.080;9.006;2023-04-22T14:23:31;27.00;47.60
31263;DHT22;17892;52.080;9.006;2023-04-22T14:25:58;26.90;47.60
31263;DHT22;17892;52.080;9.006;2023-04-22T14:28:24;26.80;47.80
31263;DHT22;17892;52.080;9.006;2023-04-22T14:30:50;26.80;48.00
31263;DHT22;17892;52.080;9.006;2023-04-22T14:33:16;26.70;48.10
31263;DHT22;17892;52.080;9.006;2023-04-22T14:35:43;26.70;47.90
31263;DHT22;17892;52.080;9.006;2023-04-22T14:38:09;26.60;48.10
31263;DHT22;17892;52.080;9.006;2023-04-22T14:40:36;26.50;47.80
31263;DHT22;17892;52.080;9.006;2023-04-22T14:43:04;26.40;47.80
31263;DHT22;17892;52.080;9.006;2023-04-22T14:45:31;26.20;47.60
31263;DHT22;17892;52.080;9.006;2023-04-22T14:47:58;26.10;47.50
31263;DHT22;17892;52.080;9.006;2023-04-22T14:50:24;25.90;47.40
31263;DHT22;17892;52.080;9.006;2023-04-22T14:52:50;25.80;48.20
31263;DHT22;17892;52.080;9.006;2023-04-22T14:55:17;25.60;48.10
31263;DHT22;17892;52.080;9.006;2023-04-22T14:57:43;25.50;48.00
31263;DHT22;17892;52.080;9.006;2023-04-22T15:00:10;25.40;48.00
31263;DHT22;17892;52.080;9.006;2023-04-22T15:02:36;25.30;48.10
31263;DHT22;17892;52.080;9.006;2023-04-22T15:05:02;25.20;48.30
31263;DHT22;17892;52.080;9.006;2023-04-22T15:07:28;25.20;48.90
31263;DHT22;17892;52.080;9.006;2023-04-22T15:09:54;25.20;49.00
31263;DHT22;17892;52.080;9.006;2023-04-22T15:12:27;25.20;48.90
31263;DHT22;17892;52.080;9.006;2023-04-22T15:14:53;25.20;49.40
31263;DHT22;17892;52.080;9.006;2023-04-22T15:17:19;25.20;49.70
31263;DHT22;17892;52.080;9.006;2023-04-22T15:19:45;25.30;49.40
31263;DHT22;17892;52.080;9.006;2023-04-22T15:22:11;25.30;49.20
31263;DHT22;17892;52.080;9.006;2023-04-22T15:24:36;25.40;49.40
31263;DHT22;17892;52.080;9.006;2023-04-22T15:27:02;25.30;49.20
31263;DHT22;17892;52.080;9.006;2023-04-22T15:29:28;25.30;49.30
31263;DHT22;17892;52.080;9.006;2023-04-22T15:31:54;25.40;49.20
31263;DHT22;17892;52.080;9.006;2023-04-22T15:34:21;25.30;49.80
31263;DHT22;17892;52.080;9.006;2023-04-22T15:36:47;25.20;49.70
31263;DHT22;17892;52.080;9.006;2023-04-22T15:39:13;25.40;50.20
31263;DHT22;17892;52.080;9.006;2023-04-22T15:41:39;25.40;50.30
31263;DHT22;17892;52.080;9.006;2023-04-22T15:44:06;25.40;50.30
31263;DHT22;17892;52.080;9.006;2023-04-22T15:46:32;25.50;50.60
31263;DHT22;17892;52.080;9.006;2023-04-22T15:48:58;25.60;50.20